sensor_id;sensor_type;location;lat;lon;timestamp;pressure;altitude;pressure_sealevel;temperature;humidity
65614;BME280;52283;49.292;10.572;2024-02-23T00:01:37;94304.03;;;8.10;100.00
65614;BME280;52283;49.292;10.572;2024-02-23T00:04:03;94306.47;;;7.92;100.00
65614;BME280;52283;49.292;10.572;2024-02-23T00:06:34;94328.59;;;7.98;100.00
65614;BME280;52283;49.292;10.572;2024-02-23T00:09:00;94322.94;;;7.77;100.00
65614;BME280;52283;49.292;10.572;2024-02-23T00:11:28;94333.44;;;7.71;100.00
65614;BME280;52283;49.292;10.572;2024-02-23T00:13:55;94361.13;;;7.50;100.00
65614;BME280;52283;49.292;10.572;2024-02-23T00:16:22;94343.16;;;7.38;100.00
65614;BME280;52283;49.292;10.572;2024-02-23T00:18:48;94343.78;;;7.44;100.00
65614;BME280;52283;49.292;10.572;2024-02-23T00:21:14;94366.78;;;7.31;100.00
65614;BME280;52283;49.292;10.572;2024-02-23T00:23:41;94381.09;;;7.36;100.00
65614;BME280;52283;49.292;10.572;2024-02-23T00:26:07;94385.09;;;7.08;100.00
65614;BME280;52283;49.292;10.572;2024-02-23T00:28:35;94431.97;;;6.98;100.00
65614;BME280;52283;49.292;10.572;2024-02-23T00:31:02;94422.69;;;6.77;100.00
65614;BME280;52283;49.292;10.572;2024-02-23T00:33:28;94428.13;;;6.69;100.00
65614;BME280;52283;49.292;10.572;2024-02-23T00:35:55;94429.75;;;6.59;100.00
65614;BME280;52283;49.292;10.572;2024-02-23T00:38:21;94426.84;;;6.52;100.00
65614;BME280;52283;49.292;10.572;2024-02-23T00:40:47;94414.56;;;6.47;100.00
65614;BME280;52283;49.292;10.572;2024-02-23T00:43:14;94425.13;;;6.49;100.00
65614;BME280;52283;49.292;10.572;2024-02-23T00:45:42;94410.63;;;6.56;100.00
65614;BME280;52283;49.292;10.572;2024-02-23T00:48:08;94420.16;;;6.41;100.00
65614;BME280;52283;49.292;10.572;2024-02-23T00:50:35;94420.38;;;6.43;100.00
65614;BME280;52283;49.292;10.572;2024-02-23T00:53:02;94440.06;;;6.46;100.00
65614;BME280;52283;49.292;10.572;2024-02-23T00:55:29;94442.00;;;6.51;100.00
65614;BME280;52283;49.292;10.572;2024-02-23T00:57:55;94437.72;;;6.50;100.00
65614;BME280;52283;49.292;10.572;2024-02-23T01:00:21;94458.34;;;6.35;100.00
65614;BME280;52283;49.292;10.572;2024-02-23T01:02:50;94443.84;;;6.24;100.00
65614;BME280;52283;49.292;10.572;2024-02-23T01:05:17;94456.53;;;6.38;100.00
65614;BME280;52283;49.292;10.572;2024-02-23T01:07:43;94450.75;;;6.17;100.00
65614;BME280;52283;49.292;10.572;2024-02-23T01:10:09;94459.75;;;6.42;100.00
65614;BME280;52283;49.292;10.572;2024-02-23T01:12:36;94470.19;;;6.36;100.00
65614;BME280;52283;49.292;10.572;2024-02-23T01:15:03;94495.28;;;6.25;100.00
65614;BME280;52283;49.292;10.572;2024-02-23T01:17:30;94483.81;;;6.34;100.00
65614;BME280;52283;49.292;10.572;2024-02-23T01:19:57;94496.56;;;6.42;100.00
65614;BME280;52283;49.292;10.572;2024-02-23T01:22:24;94478.53;;;6.11;100.00
65614;BME280;52283;49.292;10.572;2024-02-23T01:24:50;94481.25;;;6.17;100.00
65614;BME280;52283;49.292;10.572;2024-02-23T01:27:17;94495.03;;;6.23;100.00
65614;BME280;52283;49.292;10.572;2024-02-23T01:29:43;94486.97;;;6.25;100.00
65614;BME280;52283;49.292;10.572;2024-02-23T01:32:10;94488.22;;;6.05;100.00
65614;BME280;52283;49.292;10.572;2024-02-23T01:34:36;94500.03;;;6.30;100.00
65614;BME280;52283;49.292;10.572;2024-02-23T01:37:04;94504.19;;;6.18;100.00
65614;BME280;52283;49.292;10.572;2024-02-23T01:39:30;94499.22;;;6.10;100.00
65614;BME280;52283;49.292;10.572;2024-02-23T01:41:57;94514.44;;;6.23;100.00
65614;BME280;52283;49.292;10.572;2024-02-23T01:44:23;94509.28;;;6.14;100.00
65614;BME280;52283;49.292;10.572;2024-02-23T01:46:50;94510.66;;;6.26;100.00
65614;BME280;52283;49.292;10.572;2024-02-23T01:49:17;94502.97;;;6.13;100.00
65614;BME280;52283;49.292;10.572;2024-02-23T01:51:44;94520.09;;;5.93;100.00
65614;BME280;52283;49.292;10.572;2024-02-23T01:54:12;94525.97;;;6.08;100.00
65614;BME280;52283;49.292;10.572;2024-02-23T01:56:38;94513.09;;;6.10;100.00
65614;BME280;52283;49.292;10.572;2024-02-23T01:59:05;94502.69;;;5.92;100.00
65614;BME280;52283;49.292;10.572;2024-02-23T02:01:32;94498.69;;;6.12;100.00
65614;BME280;52283;49.292;10.572;2024-02-23T02:03:59;94502.69;;;6.17;100.00
65614;BME280;52283;49.292;10.572;2024-02-23T02:06:26;94510.25;;;5.92;100.00
65614;BME280;52283;49.292;10.572;2024-02-23T02:08:53;94519.34;;;5.92;100.00
65614;BME280;52283;49.292;10.572;2024-02-23T02:11:21;94517.88;;;5.86;100.00
65614;BME280;52283;49.292;10.572;2024-02-23T02:13:48;94523.59;;;5.93;100.00
65614;BME280;52283;49.292;10.572;2024-02-23T02:16:14;94513.19;;;5.99;100.00
65614;BME280;52283;49.292;10.572;2024-02-23T02:18:41;94524.66;;;5.90;100.00
65614;BME280;52283;49.292;10.572;2024-02-23T02:21:09;94536.41;;;5.96;100.00
65614;BME280;52283;49.292;10.572;2024-02-23T02:23:36;94557.63;;;5.94;100.00
65614;BME280;52283;49.292;10.572;2024-02-23T02:26:03;94543.13;;;5.76;100.00
65614;BME280;52283;49.292;10.572;2024-02-23T02:28:31;94536.84;;;5.76;100.00
65614;BME280;52283;49.292;10.572;2024-02-23T02:30:59;94548.63;;;5.82;100.00
65614;BME280;52283;49.292;10.572;2024-02-23T02:33:26;94554.69;;;5.80;100.00
65614;BME280;52283;49.292;10.572;2024-02-23T02:35:52;94549.59;;;5.90;100.00
65614;BME280;52283;49.292;10.572;2024-02-23T02:38:19;94557.66;;;5.88;100.00
65614;BME280;52283;49.292;10.572;2024-02-23T02:40:45;94560.97;;;5.81;100.00
65614;BME280;52283;49.292;10.572;2024-02-23T02:43:12;94555.31;;;5.68;100.00
65614;BME280;52283;49.292;10.572;2024-02-23T02:45:40;94555.25;;;5.73;100.00
65614;BME280;52283;49.292;10.572;2024-02-23T02:48:07;94553.66;;;5.84;100.00
65614;BME280;52283;49.292;10.572;2024-02-23T02:50:34;94548.44;;;5.74;100.00
65614;BME280;52283;49.292;10.572;2024-02-23T02:53:00;94556.28;;;5.70;100.00
65614;BME280;52283;49.292;10.572;2024-02-23T02:55:27;94548.28;;;5.67;100.00
65614;BME280;52283;49.292;10.572;2024-02-23T02:57:53;94550.53;;;5.68;100.00
65614;BME280;52283;49.292;10.572;2024-02-23T03:00:20;94568.38;;;5.73;100.00
65614;BME280;52283;49.292;10.572;2024-02-23T03:02:47;94570.91;;;5.71;100.00
65614;BME280;52283;49.292;10.572;2024-02-23T03:05:14;94566.94;;;5.61;100.00
65614;BME280;52283;49.292;10.572;2024-02-23T03:07:40;94560.25;;;5.50;100.00
65614;BME280;52283;49.292;10.572;2024-02-23T03:10:07;94575.53;;;5.57;100.00
65614;BME280;52283;49.292;10.572;2024-02-23T03:12:34;94550.88;;;5.54;100.00
65614;BME280;52283;49.292;10.572;2024-02-23T03:15:00;94568.44;;;5.62;100.00
65614;BME280;52283;49.292;10.572;2024-02-23T03:17:27;94580.78;;;5.61;100.00
65614;BME280;52283;49.292;10.572;2024-02-23T03:19:55;94556.72;;;5.50;100.00
65614;BME280;52283;49.292;10.572;2024-02-23T03:22:23;94576.69;;;5.37;100.00
65614;BME280;52283;49.292;10.572;2024-02-23T03:24:49;94585.69;;;5.49;100.00
65614;BME280;52283;49.292;10.572;2024-02-23T03:27:16;94582.25;;;5.37;100.00
65614;BME280;52283;49.292;10.572;2024-02-23T03:29:42;94591.09;;;5.30;100.00
65614;BME280;52283;49.292;10.572;2024-02-23T03:32:09;94572.72;;;5.33;100.00
65614;BME280;52283;49.292;10.572;2024-02-23T03:34:35;94582.31;;;5.26;100.00
65614;BME280;52283;49.292;10.572;2024-02-23T03:37:03;94568.66;;;5.34;100.00
65614;BME280;52283;49.292;10.572;2024-02-23T03:39:29;94575.25;;;5.31;100.00
65614;BME280;52283;49.292;10.572;2024-02-23T03:41:57;94579.47;;;5.37;100.00
65614;BME280;52283;49.292;10.572;2024-02-23T03:44:24;94579.09;;;5.22;100.00
65614;BME280;52283;49.292;10.572;2024-02-23T03:46:50;94578.34;;;5.22;100.00
65614;BME280;52283;49.292;10.572;2024-02-23T03:49:17;94567.03;;;5.14;100.00
65614;BME280;52283;49.292;10.572;2024-02-23T03:51:44;94557.69;;;5.17;100.00
65614;BME280;52283;49.292;10.572;2024-02-23T03:54:11;94566.13;;;5.41;100.00
65614;BME280;52283;49.292;10.572;2024-02-23T03:56:38;94569.28;;;5.21;100.00
65614;BME280;52283;49.292;10.572;2024-02-23T03:59:06;94564.75;;;5.18;100.00
65614;BME280;52283;49.292;10.572;2024-02-23T04:01:34;94570.50;;;5.20;100.00
65614;BME280;52283;49.292;10.572;2024-02-23T04:04:01;94564.97;;;5.20;100.00
65614;BME280;52283;49.292;10.572;2024-02-23T04:06:27;94560.56;;;5.06;100.00
65614;BME280;52283;49.292;10.572;2024-02-23T04:08:54;94547.88;;;5.16;100.00
65614;BME280;52283;49.292;10.572;2024-02-23T04:11:22;94558.34;;;5.34;100.00
65614;BME280;52283;49.292;10.572;2024-02-23T04:13:48;94575.75;;;5.29;100.00
65614;BME280;52283;49.292;10.572;2024-02-23T04:16:15;94577.97;;;5.36;100.00
65614;BME280;52283;49.292;10.572;2024-02-23T04:18:41;94591.16;;;5.19;100.00
65614;BME280;52283;49.292;10.572;2024-02-23T04:21:08;94591.44;;;5.15;100.00
65614;BME280;52283;49.292;10.572;2024-02-23T04:23:34;94597.22;;;5.17;100.00
65614;BME280;52283;49.292;10.572;2024-02-23T04:26:01;94591.69;;;5.17;100.00
65614;BME280;52283;49.292;10.572;2024-02-23T04:28:28;94599.38;;;4.95;100.00
65614;BME280;52283;49.292;10.572;2024-02-23T04:30:56;94603.63;;;4.96;100.00
65614;BME280;52283;49.292;10.572;2024-02-23T04:33:22;94609.44;;;4.92;100.00
65614;BME280;52283;49.292;10.572;2024-02-23T04:35:49;94609.72;;;4.88;100.00
65614;BME280;52283;49.292;10.572;2024-02-23T04:38:15;94611.63;;;5.10;100.00
65614;BME280;52283;49.292;10.572;2024-02-23T04:40:42;94615.19;;;5.00;100.00
65614;BME280;52283;49.292;10.572;2024-02-23T04:43:08;94608.13;;;4.99;100.00
65614;BME280;52283;49.292;10.572;2024-02-23T04:45:36;94621.78;;;4.91;100.00
65614;BME280;52283;49.292;10.572;2024-02-23T04:48:03;94630.13;;;4.85;100.00
65614;BME280;52283;49.292;10.572;2024-02-23T04:50:29;94643.84;;;5.08;100.00
65614;BME280;52283;49.292;10.572;2024-02-23T04:52:56;94628.06;;;4.92;100.00
65614;BME280;52283;49.292;10.572;2024-02-23T04:55:22;94622.03;;;4.93;100.00
65614;BME280;52283;49.292;10.572;2024-02-23T04:57:49;94632.56;;;5.00;100.00
65614;BME280;52283;49.292;10.572;2024-02-23T05:00:16;94618.28;;;4.85;100.00
65614;BME280;52283;49.292;10.572;2024-02-23T05:02:44;94613.50;;;4.85;100.00
65614;BME280;52283;49.292;10.572;2024-02-23T05:05:10;94617.19;;;4.99;100.00
65614;BME280;52283;49.292;10.572;2024-02-23T05:07:37;94625.25;;;4.97;100.00
65614;BME280;52283;49.292;10.572;2024-02-23T05:10:03;94621.06;;;4.85;100.00
65614;BME280;52283;49.292;10.572;2024-02-23T05:12:30;94623.31;;;4.86;100.00
65614;BME280;52283;49.292;10.572;2024-02-23T05:14:56;94619.56;;;4.78;100.00
65614;BME280;52283;49.292;10.572;2024-02-23T05:17:23;94625.09;;;4.84;100.00
65614;BME280;52283;49.292;10.572;2024-02-23T05:19:51;94621.50;;;5.00;100.00
65614;BME280;52283;49.292;10.572;2024-02-23T05:22:17;94601.63;;;4.96;100.00
65614;BME280;52283;49.292;10.572;2024-02-23T05:24:44;94603.97;;;4.81;100.00
65614;BME280;52283;49.292;10.572;2024-02-23T05:27:11;94604.97;;;4.78;100.00
65614;BME280;52283;49.292;10.572;2024-02-23T05:29:37;94604.50;;;4.79;100.00
65614;BME280;52283;49.292;10.572;2024-02-23T05:32:04;94609.03;;;4.71;100.00
65614;BME280;52283;49.292;10.572;2024-02-23T05:34:30;94605.47;;;4.82;100.00
65614;BME280;52283;49.292;10.572;2024-02-23T05:36:58;94594.66;;;4.78;100.00
65614;BME280;52283;49.292;10.572;2024-02-23T05:39:25;94588.63;;;4.80;100.00
65614;BME280;52283;49.292;10.572;2024-02-23T05:41:51;94585.75;;;5.02;100.00
65614;BME280;52283;49.292;10.572;2024-02-23T05:44:17;94598.44;;;4.81;100.00
65614;BME280;52283;49.292;10.572;2024-02-23T05:46:44;94607.25;;;4.74;100.00
65614;BME280;52283;49.292;10.572;2024-02-23T05:49:12;94623.25;;;4.98;100.00
65614;BME280;52283;49.292;10.572;2024-02-23T05:51:38;94638.44;;;4.80;100.00
65614;BME280;52283;49.292;10.572;2024-02-23T05:54:06;94645.13;;;5.07;100.00
65614;BME280;52283;49.292;10.572;2024-02-23T05:56:32;94648.91;;;5.04;100.00
65614;BME280;52283;49.292;10.572;2024-02-23T05:58:59;94647.41;;;5.03;100.00
65614;BME280;52283;49.292;10.572;2024-02-23T06:01:25;94645.19;;;4.90;100.00
65614;BME280;52283;49.292;10.572;2024-02-23T06:03:52;94646.31;;;5.17;100.00
65614;BME280;52283;49.292;10.572;2024-02-23T06:06:20;94662.06;;;4.86;100.00
65614;BME280;52283;49.292;10.572;2024-02-23T06:08:46;94661.25;;;5.03;100.00
65614;BME280;52283;49.292;10.572;2024-02-23T06:11:16;94669.22;;;5.17;100.00
65614;BME280;52283;49.292;10.572;2024-02-23T06:13:42;94671.78;;;5.10;100.00
65614;BME280;52283;49.292;10.572;2024-02-23T06:16:10;94675.88;;;4.92;100.00
65614;BME280;52283;49.292;10.572;2024-02-23T06:18:38;94686.84;;;5.14;100.00
65614;BME280;52283;49.292;10.572;2024-02-23T06:21:11;94697.81;;;4.73;100.00
65614;BME280;52283;49.292;10.572;2024-02-23T06:23:38;94708.25;;;5.14;100.00
65614;BME280;52283;49.292;10.572;2024-02-23T06:26:05;94705.78;;;4.99;100.00
65614;BME280;52283;49.292;10.572;2024-02-23T06:28:33;94690.59;;;5.17;100.00
65614;BME280;52283;49.292;10.572;2024-02-23T06:30:59;94682.94;;;4.87;100.00
65614;BME280;52283;49.292;10.572;2024-02-23T06:33:26;94690.59;;;5.17;100.00
65614;BME280;52283;49.292;10.572;2024-02-23T06:35:52;94697.81;;;5.42;100.00
65614;BME280;52283;49.292;10.572;2024-02-23T06:38:19;94690.22;;;5.48;100.00
65614;BME280;52283;49.292;10.572;2024-02-23T06:40:45;94695.63;;;5.24;100.00
65614;BME280;52283;49.292;10.572;2024-02-23T06:43:12;94708.50;;;5.16;100.00
65614;BME280;52283;49.292;10.572;2024-02-23T06:45:40;94710.88;;;4.84;100.00
65614;BME280;52283;49.292;10.572;2024-02-23T06:48:07;94724.22;;;4.74;100.00
65614;BME280;52283;49.292;10.572;2024-02-23T06:50:34;94734.78;;;4.76;100.00
65614;BME280;52283;49.292;10.572;2024-02-23T06:53:01;94740.06;;;4.85;100.00
65614;BME280;52283;49.292;10.572;2024-02-23T06:55:27;94727.13;;;5.21;100.00
65614;BME280;52283;49.292;10.572;2024-02-23T06:57:54;94720.00;;;5.31;100.00
65614;BME280;52283;49.292;10.572;2024-02-23T07:00:21;94722.06;;;5.25;100.00
65614;BME280;52283;49.292;10.572;2024-02-23T07:02:49;94719.97;;;4.73;100.00
65614;BME280;52283;49.292;10.572;2024-02-23T07:05:15;94720.09;;;5.09;100.00
65614;BME280;52283;49.292;10.572;2024-02-23T07:07:41;94698.06;;;5.44;100.00
65614;BME280;52283;49.292;10.572;2024-02-23T07:10:09;94703.59;;;5.44;100.00
65614;BME280;52283;49.292;10.572;2024-02-23T07:12:35;94703.97;;;5.13;100.00
65614;BME280;52283;49.292;10.572;2024-02-23T07:15:02;94698.41;;;5.24;100.00
65614;BME280;52283;49.292;10.572;2024-02-23T07:17:29;94704.22;;;5.15;100.00
65614;BME280;52283;49.292;10.572;2024-02-23T07:19:56;94707.72;;;5.21;100.00
65614;BME280;52283;49.292;10.572;2024-02-23T07:22:31;94730.19;;;5.06;100.00
65614;BME280;52283;49.292;10.572;2024-02-23T07:24:57;94737.19;;;5.13;100.00
65614;BME280;52283;49.292;10.572;2024-02-23T07:27:23;94746.56;;;4.93;100.00
65614;BME280;52283;49.292;10.572;2024-02-23T07:29:50;94742.03;;;4.96;100.00
65614;BME280;52283;49.292;10.572;2024-02-23T07:32:17;94746.03;;;5.06;100.00
65614;BME280;52283;49.292;10.572;2024-02-23T07:34:43;94748.34;;;4.90;100.00
65614;BME280;52283;49.292;10.572;2024-02-23T07:37:11;94753.47;;;4.47;100.00
65614;BME280;52283;49.292;10.572;2024-02-23T07:39:37;94769.75;;;4.79;100.00
65614;BME280;52283;49.292;10.572;2024-02-23T07:42:04;94786.03;;;5.16;100.00
65614;BME280;52283;49.292;10.572;2024-02-23T07:44:31;94789.13;;;4.84;100.00
65614;BME280;52283;49.292;10.572;2024-02-23T07:46:57;94781.78;;;5.04;100.00
65614;BME280;52283;49.292;10.572;2024-02-23T07:49:24;94774.31;;;4.71;100.00
65614;BME280;52283;49.292;10.572;2024-02-23T07:51:53;94764.47;;;4.75;100.00
65614;BME280;52283;49.292;10.572;2024-02-23T07:54:21;94760.19;;;4.74;100.00
65614;BME280;52283;49.292;10.572;2024-02-23T07:56:47;94766.72;;;4.77;100.00
65614;BME280;52283;49.292;10.572;2024-02-23T07:59:14;94769.72;;;4.96;100.00
65614;BME280;52283;49.292;10.572;2024-02-23T08:01:40;94770.22;;;5.05;100.00
65614;BME280;52283;49.292;10.572;2024-02-23T08:04:07;94779.78;;;5.04;100.00
65614;BME280;52283;49.292;10.572;2024-02-23T08:06:34;94778.97;;;5.15;100.00
65614;BME280;52283;49.292;10.572;2024-02-23T08:09:00;94770.47;;;4.96;100.00
65614;BME280;52283;49.292;10.572;2024-02-23T08:11:29;94768.38;;;5.25;100.00
65614;BME280;52283;49.292;10.572;2024-02-23T08:13:55;94759.94;;;4.89;100.00
65614;BME280;52283;49.292;10.572;2024-02-23T08:16:22;94753.13;;;4.90;100.00
65614;BME280;52283;49.292;10.572;2024-02-23T08:18:48;94763.72;;;4.80;100.00
65614;BME280;52283;49.292;10.572;2024-02-23T08:21:15;94764.47;;;4.86;100.00
65614;BME280;52283;49.292;10.572;2024-02-23T08:23:41;94759.72;;;4.70;100.00
65614;BME280;52283;49.292;10.572;2024-02-23T08:26:07;94751.91;;;4.69;100.00
65614;BME280;52283;49.292;10.572;2024-02-23T08:28:36;94756.66;;;4.90;100.00
65614;BME280;52283;49.292;10.572;2024-02-23T08:31:03;94756.38;;;5.00;100.00
65614;BME280;52283;49.292;10.572;2024-02-23T08:33:30;94740.25;;;5.09;100.00
65614;BME280;52283;49.292;10.572;2024-02-23T08:35:56;94735.31;;;4.80;100.00
65614;BME280;52283;49.292;10.572;2024-02-23T08:38:23;94758.91;;;4.92;100.00
65614;BME280;52283;49.292;10.572;2024-02-23T08:40:49;94771.53;;;4.82;100.00
65614;BME280;52283;49.292;10.572;2024-02-23T08:43:16;94768.97;;;4.89;100.00
65614;BME280;52283;49.292;10.572;2024-02-23T08:45:44;94759.34;;;5.13;100.00
65614;BME280;52283;49.292;10.572;2024-02-23T08:48:10;94758.38;;;4.99;100.00
65614;BME280;52283;49.292;10.572;2024-02-23T08:50:40;94760.84;;;5.14;100.00
65614;BME280;52283;49.292;10.572;2024-02-23T08:53:06;94774.41;;;5.29;100.00
65614;BME280;52283;49.292;10.572;2024-02-23T08:55:33;94782.41;;;5.38;100.00
65614;BME280;52283;49.292;10.572;2024-02-23T08:57:59;94777.88;;;5.40;100.00
65614;BME280;52283;49.292;10.572;2024-02-23T09:00:26;94773.50;;;5.62;100.00
65614;BME280;52283;49.292;10.572;2024-02-23T09:02:54;94765.44;;;5.00;100.00
65614;BME280;52283;49.292;10.572;2024-02-23T09:05:19;94773.16;;;5.18;100.00
65614;BME280;52283;49.292;10.572;2024-02-23T09:07:46;94763.28;;;5.40;100.00
65614;BME280;52283;49.292;10.572;2024-02-23T09:10:13;94762.94;;;5.60;100.00
65614;BME280;52283;49.292;10.572;2024-02-23T09:12:39;94755.13;;;5.59;100.00
65614;BME280;52283;49.292;10.572;2024-02-23T09:15:06;94767.91;;;5.20;100.00
65614;BME280;52283;49.292;10.572;2024-02-23T09:17:33;94770.81;;;5.39;100.00
65614;BME280;52283;49.292;10.572;2024-02-23T09:20:01;94767.31;;;5.44;100.00
65614;BME280;52283;49.292;10.572;2024-02-23T09:22:27;94780.66;;;5.40;100.00
65614;BME280;52283;49.292;10.572;2024-02-23T09:24:54;94787.63;;;5.64;100.00
65614;BME280;52283;49.292;10.572;2024-02-23T09:27:21;94784.63;;;5.56;100.00
65614;BME280;52283;49.292;10.572;2024-02-23T09:29:48;94770.28;;;5.52;100.00
65614;BME280;52283;49.292;10.572;2024-02-23T09:32:14;94769.78;;;5.54;100.00
65614;BME280;52283;49.292;10.572;2024-02-23T09:34:40;94765.66;;;5.71;100.00
65614;BME280;52283;49.292;10.572;2024-02-23T09:37:09;94770.63;;;5.90;100.00
65614;BME280;52283;49.292;10.572;2024-02-23T09:39:36;94769.97;;;5.61;100.00
65614;BME280;52283;49.292;10.572;2024-02-23T09:42:02;94779.91;;;5.34;100.00
65614;BME280;52283;49.292;10.572;2024-02-23T09:44:33;94799.28;;;5.40;100.00
65614;BME280;52283;49.292;10.572;2024-02-23T09:47:00;94802.00;;;5.57;100.00
65614;BME280;52283;49.292;10.572;2024-02-23T09:49:33;94803.22;;;5.61;100.00
65614;BME280;52283;49.292;10.572;2024-02-23T09:52:01;94803.81;;;5.43;100.00
65614;BME280;52283;49.292;10.572;2024-02-23T09:54:30;94797.22;;;5.57;100.00
65614;BME280;52283;49.292;10.572;2024-02-23T09:56:56;94780.06;;;5.59;100.00
65614;BME280;52283;49.292;10.572;2024-02-23T09:59:23;94801.13;;;5.90;100.00
65614;BME280;52283;49.292;10.572;2024-02-23T10:01:53;94797.56;;;5.89;100.00
65614;BME280;52283;49.292;10.572;2024-02-23T10:04:19;94792.22;;;6.02;100.00
65614;BME280;52283;49.292;10.572;2024-02-23T10:06:46;94793.28;;;5.82;100.00
65614;BME280;52283;49.292;10.572;2024-02-23T10:09:13;94794.03;;;5.89;100.00
65614;BME280;52283;49.292;10.572;2024-02-23T10:11:40;94795.25;;;5.99;100.00
65614;BME280;52283;49.292;10.572;2024-02-23T10:14:08;94789.81;;;6.23;100.00
65614;BME280;52283;49.292;10.572;2024-02-23T10:16:34;94796.47;;;6.03;100.00
65614;BME280;52283;49.292;10.572;2024-02-23T10:19:01;94798.78;;;6.05;100.00
65614;BME280;52283;49.292;10.572;2024-02-23T10:21:29;94812.69;;;6.35;100.00
65614;BME280;52283;49.292;10.572;2024-02-23T10:23:55;94806.97;;;6.22;100.00
65614;BME280;52283;49.292;10.572;2024-02-23T10:26:21;94804.03;;;6.08;100.00
65614;BME280;52283;49.292;10.572;2024-02-23T10:28:49;94808.47;;;6.23;100.00
65614;BME280;52283;49.292;10.572;2024-02-23T10:31:17;94809.53;;;6.14;100.00
65614;BME280;52283;49.292;10.572;2024-02-23T10:33:44;94808.38;;;5.98;100.00
65614;BME280;52283;49.292;10.572;2024-02-23T10:36:15;94804.00;;;6.14;100.00
65614;BME280;52283;49.292;10.572;2024-02-23T10:38:44;94811.75;;;6.21;100.00
65614;BME280;52283;49.292;10.572;2024-02-23T10:41:13;94809.41;;;5.95;100.00
65614;BME280;52283;49.292;10.572;2024-02-23T10:43:44;94816.47;;;5.91;100.00
65614;BME280;52283;49.292;10.572;2024-02-23T10:46:14;94825.94;;;6.12;100.00
65614;BME280;52283;49.292;10.572;2024-02-23T10:48:41;94822.47;;;6.00;100.00
65614;BME280;52283;49.292;10.572;2024-02-23T10:51:08;94829.22;;;6.10;100.00
65614;BME280;52283;49.292;10.572;2024-02-23T10:53:36;94821.47;;;5.98;100.00
65614;BME280;52283;49.292;10.572;2024-02-23T10:56:06;94819.41;;;6.45;100.00
65614;BME280;52283;49.292;10.572;2024-02-23T10:58:33;94822.06;;;6.62;100.00
65614;BME280;52283;49.292;10.572;2024-02-23T11:01:01;94819.91;;;6.43;100.00
65614;BME280;52283;49.292;10.572;2024-02-23T11:03:31;94816.97;;;6.36;100.00
65614;BME280;52283;49.292;10.572;2024-02-23T11:05:59;94811.53;;;6.19;100.00
65614;BME280;52283;49.292;10.572;2024-02-23T11:08:27;94818.56;;;6.26;100.00
65614;BME280;52283;49.292;10.572;2024-02-23T11:10:54;94813.53;;;6.19;100.00
65614;BME280;52283;49.292;10.572;2024-02-23T11:13:29;94814.66;;;6.40;100.00
65614;BME280;52283;49.292;10.572;2024-02-23T11:16:01;94805.44;;;6.26;100.00
65614;BME280;52283;49.292;10.572;2024-02-23T11:18:27;94802.06;;;6.39;100.00
65614;BME280;52283;49.292;10.572;2024-02-23T11:20:56;94803.09;;;5.89;100.00
65614;BME280;52283;49.292;10.572;2024-02-23T11:23:25;94797.38;;;6.23;100.00
65614;BME280;52283;49.292;10.572;2024-02-23T11:26:06;94787.53;;;6.27;100.00
65614;BME280;52283;49.292;10.572;2024-02-23T11:28:41;94790.19;;;6.38;100.00
65614;BME280;52283;49.292;10.572;2024-02-23T11:31:11;94784.63;;;6.08;100.00
65614;BME280;52283;49.292;10.572;2024-02-23T11:33:38;94781.56;;;6.12;100.00
65614;BME280;52283;49.292;10.572;2024-02-23T11:36:07;94778.75;;;6.18;100.00
65614;BME280;52283;49.292;10.572;2024-02-23T11:38:33;94766.31;;;6.30;100.00
65614;BME280;52283;49.292;10.572;2024-02-23T11:41:00;94765.41;;;6.16;100.00
65614;BME280;52283;49.292;10.572;2024-02-23T11:43:27;94779.34;;;6.05;100.00
65614;BME280;52283;49.292;10.572;2024-02-23T11:45:53;94771.19;;;6.18;100.00
65614;BME280;52283;49.292;10.572;2024-02-23T11:48:20;94766.28;;;6.35;100.00
65614;BME280;52283;49.292;10.572;2024-02-23T11:50:48;94762.22;;;6.36;100.00
65614;BME280;52283;49.292;10.572;2024-02-23T11:53:16;94771.69;;;6.52;100.00
65614;BME280;52283;49.292;10.572;2024-02-23T11:55:44;94757.94;;;6.35;100.00
65614;BME280;52283;49.292;10.572;2024-02-23T11:58:11;94755.13;;;6.41;100.00
65614;BME280;52283;49.292;10.572;2024-02-23T12:00:37;94756.31;;;6.51;100.00
65614;BME280;52283;49.292;10.572;2024-02-23T12:03:05;94755.84;;;6.47;100.00
65614;BME280;52283;49.292;10.572;2024-02-23T12:05:32;94759.63;;;6.44;100.00
65614;BME280;52283;49.292;10.572;2024-02-23T12:07:59;94747.59;;;6.36;100.00
65614;BME280;52283;49.292;10.572;2024-02-23T12:10:27;94744.94;;;6.25;100.00
65614;BME280;52283;49.292;10.572;2024-02-23T12:12:54;94753.56;;;6.16;100.00
65614;BME280;52283;49.292;10.572;2024-02-23T12:15:21;94754.09;;;6.44;100.00
65614;BME280;52283;49.292;10.572;2024-02-23T12:17:47;94750.63;;;6.68;100.00
65614;BME280;52283;49.292;10.572;2024-02-23T12:20:14;94743.56;;;6.67;99.67
65614;BME280;52283;49.292;10.572;2024-02-23T12:22:40;94737.75;;;6.65;99.23
65614;BME280;52283;49.292;10.572;2024-02-23T12:25:07;94732.63;;;6.75;99.37
65614;BME280;52283;49.292;10.572;2024-02-23T12:27:35;94747.63;;;6.60;100.00
65614;BME280;52283;49.292;10.572;2024-02-23T12:30:02;94748.81;;;6.40;99.33
65614;BME280;52283;49.292;10.572;2024-02-23T12:32:29;94738.28;;;6.33;99.50
65614;BME280;52283;49.292;10.572;2024-02-23T12:34:55;94744.13;;;6.60;99.06
65614;BME280;52283;49.292;10.572;2024-02-23T12:37:22;94730.75;;;6.58;99.11
65614;BME280;52283;49.292;10.572;2024-02-23T12:39:48;94735.63;;;6.52;100.00
65614;BME280;52283;49.292;10.572;2024-02-23T12:42:15;94738.94;;;6.45;100.00
65614;BME280;52283;49.292;10.572;2024-02-23T12:44:43;94735.53;;;6.33;100.00
65614;BME280;52283;49.292;10.572;2024-02-23T12:47:09;94729.31;;;6.52;100.00
65614;BME280;52283;49.292;10.572;2024-02-23T12:49:36;94736.88;;;6.51;100.00